Time;durP1;ratioP1;P1;durP2;ratioP2;P2;SDS_P1;SDS_P2;PMS_P1;PMS_P2;Temp;Humidity;BMP_temperature;BMP_pressure;BME280_temperature;BME280_humidity;BME280_pressure;Samples;Min_cycle;Max_cycle;Signal;HPM_P1;HPM_P2
2022/04/24 00:01:35;;;;;;;13.88;6.75;;;9.80;99.90;;;;;;6210995;23;20111;-75
2022/04/24 00:04:01;;;;;;;11.05;7.22;;;9.80;99.90;;;;;;6186414;23;20029;-74
2022/04/24 00:06:27;;;;;;;12.63;7.07;;;9.70;99.90;;;;;;6210990;23;20032;-75
2022/04/24 00:09:10;;;;;;;10.93;6.90;;;9.70;99.90;;;;;;6186843;23;20029;-76
2022/04/24 00:11:36;;;;;;;11.27;6.85;;;9.70;99.90;;;;;;6235758;23;20033;-76
2022/04/24 00:14:07;;;;;;;12.68;6.90;;;9.70;99.90;;;;;;6181546;23;20029;-77
2022/04/24 00:16:33;;;;;;;9.55;6.32;;;9.70;99.90;;;;;;6182831;23;20024;-77
2022/04/24 00:19:03;;;;;;;11.48;6.25;;;9.70;99.90;;;;;;6182982;23;20021;-75
2022/04/24 00:21:29;;;;;;;11.77;6.75;;;9.60;99.90;;;;;;6181305;23;20025;-77
2022/04/24 00:23:55;;;;;;;14.50;7.38;;;9.60;99.90;;;;;;6180652;23;20462;-75
2022/04/24 00:26:24;;;;;;;9.68;6.63;;;9.70;99.90;;;;;;6179418;23;20140;-76
2022/04/24 00:28:52;;;;;;;11.55;6.72;;;9.60;99.90;;;;;;6181221;23;20414;-75
2022/04/24 00:31:17;;;;;;;10.65;7.53;;;9.60;99.90;;;;;;6182587;23;20025;-75
2022/04/24 00:33:44;;;;;;;13.48;7.15;;;9.60;99.90;;;;;;6181299;23;20021;-77
2022/04/24 00:36:13;;;;;;;12.48;7.30;;;9.60;99.90;;;;;;6181011;23;20032;-75
2022/04/24 00:38:40;;;;;;;10.82;6.90;;;9.50;99.90;;;;;;6231585;23;20025;-75
2022/04/24 00:41:15;;;;;;;12.10;7.47;;;9.50;99.90;;;;;;6228911;23;20398;-75
2022/04/24 00:43:41;;;;;;;12.93;7.22;;;9.50;99.90;;;;;;6181758;23;20065;-75
2022/04/24 00:46:42;;;;;;;11.55;7.28;;;9.50;99.90;;;;;;6181194;23;20021;-75
2022/04/24 00:49:13;;;;;;;13.73;7.28;;;9.50;99.90;;;;;;6180657;23;20034;-76
2022/04/24 00:51:42;;;;;;;10.20;6.70;;;9.50;99.90;;;;;;6231012;23;20728;-76
2022/04/24 00:54:17;;;;;;;13.07;7.13;;;9.50;99.90;;;;;;6181526;23;20384;-75
2022/04/24 00:56:51;;;;;;;13.02;7.18;;;9.50;99.90;;;;;;6187237;23;20043;-76
2022/04/24 00:59:21;;;;;;;9.75;6.72;;;9.50;99.90;;;;;;6181939;23;20087;-76
2022/04/24 01:01:47;;;;;;;12.68;7.35;;;9.50;99.90;;;;;;6182903;23;20025;-75
2022/04/24 01:04:14;;;;;;;10.35;6.65;;;9.50;99.90;;;;;;6207972;23;20025;-76
2022/04/24 01:06:43;;;;;;;9.48;6.43;;;9.50;99.90;;;;;;6191592;23;20025;-75
2022/04/24 01:09:17;;;;;;;14.63;7.28;;;9.40;99.90;;;;;;6190365;23;20021;-75
2022/04/24 01:11:47;;;;;;;11.05;7.05;;;9.40;99.90;;;;;;6184591;23;20060;-76
2022/04/24 01:14:16;;;;;;;12.93;7.68;;;9.40;99.90;;;;;;6184594;23;20029;-75
2022/04/24 01:16:44;;;;;;;11.13;7.30;;;9.40;99.90;;;;;;6213076;23;20452;-75
2022/04/24 01:19:16;;;;;;;13.13;6.88;;;9.40;99.90;;;;;;6188087;23;20436;-76
2022/04/24 01:21:58;;;;;;;13.35;7.15;;;9.40;99.90;;;;;;6142238;23;20076;-76
2022/04/24 01:24:27;;;;;;;12.57;7.32;;;9.30;99.90;;;;;;6146565;23;20013;-75
2022/04/24 01:27:01;;;;;;;10.60;6.85;;;9.40;99.90;;;;;;6122440;23;20028;-75
2022/04/24 01:29:29;;;;;;;9.88;6.50;;;9.30;99.90;;;;;;6122435;23;20089;-78
2022/04/24 01:31:56;;;;;;;13.10;8.02;;;9.40;99.90;;;;;;6122423;23;20061;-74
2022/04/24 01:34:23;;;;;;;13.05;7.28;;;9.40;99.90;;;;;;6074100;23;20454;-78
2022/04/24 01:36:53;;;;;;;11.52;7.05;;;9.40;99.90;;;;;;6098958;23;20057;-77
2022/04/24 01:39:23;;;;;;;10.98;7.43;;;9.40;99.90;;;;;;6098928;23;20022;-76
2022/04/24 01:41:55;;;;;;;12.75;7.28;;;9.50;99.90;;;;;;6098847;23;20085;-76
2022/04/24 01:44:23;;;;;;;11.98;7.20;;;9.40;99.90;;;;;;6123014;23;20028;-75
2022/04/24 01:46:49;;;;;;;11.45;7.35;;;9.40;99.90;;;;;;6097952;23;20021;-77
2022/04/24 01:49:17;;;;;;;11.82;6.68;;;9.40;99.90;;;;;;6122418;23;20030;-76
2022/04/24 01:51:44;;;;;;;11.10;7.38;;;9.40;99.90;;;;;;6102527;23;20036;-74
2022/04/24 01:54:10;;;;;;;11.93;7.25;;;9.40;99.90;;;;;;6187590;23;20039;-76
2022/04/24 01:56:36;;;;;;;12.10;7.25;;;9.40;99.90;;;;;;6162835;23;20506;-75
2022/04/24 01:59:01;;;;;;;10.18;6.40;;;9.40;99.90;;;;;;6187474;23;20024;-75
2022/04/24 02:01:27;;;;;;;11.32;6.97;;;9.50;99.90;;;;;;6214518;23;20139;-76
2022/04/24 02:03:53;;;;;;;9.98;7.03;;;9.40;99.90;;;;;;6212035;23;20448;-75
2022/04/24 02:06:19;;;;;;;14.85;7.80;;;9.40;99.90;;;;;;6238066;23;20166;-75
2022/04/24 02:08:46;;;;;;;12.93;7.75;;;9.40;99.90;;;;;;6237469;23;20035;-77
2022/04/24 02:11:13;;;;;;;12.27;7.95;;;9.40;99.90;;;;;;6212410;23;20029;-76
2022/04/24 02:13:41;;;;;;;16.00;7.53;;;9.40;99.90;;;;;;6187402;22;20669;-75
2022/04/24 02:16:15;;;;;;;12.20;7.53;;;9.40;99.90;;;;;;6212170;23;20079;-76
2022/04/24 02:18:41;;;;;;;12.93;7.80;;;9.40;99.90;;;;;;6185447;23;20511;-78
2022/04/24 02:21:35;;;;;;;12.30;7.03;;;9.40;99.90;;;;;;6236750;23;20475;-75
2022/04/24 02:24:01;;;;;;;16.35;8.48;;;9.40;99.90;;;;;;6185955;23;20024;-75
2022/04/24 02:26:31;;;;;;;19.42;8.98;;;9.40;99.90;;;;;;6161677;23;20074;-78
2022/04/24 02:29:06;;;;;;;13.57;7.72;;;9.40;99.90;;;;;;6210758;23;20131;-77
2022/04/24 02:31:33;;;;;;;14.85;7.68;;;9.40;99.90;;;;;;6211468;23;20469;-74
2022/04/24 02:34:28;;;;;;;12.85;8.40;;;9.40;99.90;;;;;;6160938;23;20480;-75
2022/04/24 02:36:55;;;;;;;12.63;7.30;;;9.40;99.90;;;;;;6097732;23;20022;-77
2022/04/24 02:39:21;;;;;;;12.13;6.93;;;9.30;99.90;;;;;;6073683;23;20030;-76
2022/04/24 02:41:47;;;;;;;12.63;8.40;;;9.30;99.90;;;;;;6097634;23;20026;-76
2022/04/24 02:44:13;;;;;;;11.57;7.50;;;9.30;99.90;;;;;;6097322;23;20061;-75
2022/04/24 02:46:38;;;;;;;11.80;7.28;;;9.30;99.90;;;;;;6097179;23;20053;-76
2022/04/24 02:49:04;;;;;;;11.57;7.07;;;9.30;99.90;;;;;;6073324;23;20026;-76
2022/04/24 02:51:30;;;;;;;14.55;7.22;;;9.30;99.90;;;;;;6096451;23;20567;-76
2022/04/24 02:54:01;;;;;;;13.20;6.70;;;9.30;99.90;;;;;;6097147;23;20084;-75
2022/04/24 02:56:36;;;;;;;11.50;7.13;;;9.30;99.90;;;;;;6074256;23;20026;-76
2022/04/24 02:59:05;;;;;;;10.93;6.05;;;9.30;99.90;;;;;;6096650;23;20620;-76
2022/04/24 03:01:34;;;;;;;11.18;6.50;;;9.30;99.90;;;;;;6121557;23;20114;-76
2022/04/24 03:04:27;;;;;;;14.57;7.13;;;9.30;99.90;;;;;;6068149;23;20030;-76
2022/04/24 03:07:06;;;;;;;13.55;6.65;;;9.30;99.90;;;;;;6046714;23;20026;-75
2022/04/24 03:09:32;;;;;;;12.05;6.72;;;9.30;99.90;;;;;;6068294;23;20018;-76
2022/04/24 03:12:07;;;;;;;13.65;6.80;;;9.30;99.90;;;;;;6068949;23;20026;-75
2022/04/24 03:14:33;;;;;;;13.55;5.70;;;9.30;99.90;;;;;;6043910;23;20033;-77
2022/04/24 03:17:04;;;;;;;9.45;6.10;;;9.30;99.90;;;;;;6044919;23;20038;-76
2022/04/24 03:19:30;;;;;;;12.98;6.18;;;9.30;99.90;;;;;;6067690;23;20098;-74
2022/04/24 03:21:57;;;;;;;12.10;6.05;;;9.30;99.90;;;;;;6067714;23;20031;-76
2022/04/24 03:24:23;;;;;;;12.23;6.40;;;9.30;99.90;;;;;;6067409;23;20030;-75
2022/04/24 03:26:50;;;;;;;11.75;6.15;;;9.30;99.90;;;;;;6081992;23;20028;-75
2022/04/24 03:29:36;;;;;;;13.38;5.85;;;9.30;99.90;;;;;;6155119;23;20025;-76
2022/04/24 03:32:07;;;;;;;17.20;6.55;;;9.20;99.90;;;;;;6156137;23;20024;-75
2022/04/24 03:34:33;;;;;;;14.65;7.35;;;9.20;99.90;;;;;;6160597;23;20031;-75
2022/04/24 03:37:02;;;;;;;12.18;6.50;;;9.20;99.90;;;;;;6186769;23;20048;-75
2022/04/24 03:39:27;;;;;;;14.48;6.75;;;9.20;99.90;;;;;;6211545;23;20377;-75
2022/04/24 03:41:58;;;;;;;12.13;6.50;;;9.20;99.90;;;;;;6235764;23;20021;-76
2022/04/24 03:44:25;;;;;;;14.30;6.20;;;9.20;99.90;;;;;;6210334;23;20024;-76
2022/04/24 03:46:50;;;;;;;12.15;6.00;;;9.20;99.90;;;;;;6237065;23;20031;-75
2022/04/24 03:49:17;;;;;;;12.75;5.93;;;9.20;99.90;;;;;;6237277;23;20029;-75
2022/04/24 03:51:49;;;;;;;15.50;7.13;;;9.20;99.90;;;;;;6209949;23;20507;-74
2022/04/24 03:54:14;;;;;;;15.75;7.20;;;9.20;99.90;;;;;;6236972;23;20055;-75
2022/04/24 03:56:40;;;;;;;14.63;7.13;;;9.30;99.90;;;;;;6186990;23;20361;-76
2022/04/24 03:59:07;;;;;;;16.33;7.60;;;9.20;99.90;;;;;;6211452;23;20021;-75
2022/04/24 04:01:32;;;;;;;11.50;6.53;;;9.20;99.90;;;;;;6211563;23;20052;-74
2022/04/24 04:03:58;;;;;;;14.10;6.63;;;9.20;99.90;;;;;;6211679;23;20057;-75
2022/04/24 04:06:24;;;;;;;18.33;6.68;;;9.20;99.90;;;;;;6236956;23;20021;-76
2022/04/24 04:08:50;;;;;;;14.20;6.53;;;9.20;99.90;;;;;;6236957;23;20025;-76
2022/04/24 04:11:20;;;;;;;13.38;6.70;;;9.20;99.90;;;;;;6236402;23;20020;-76
2022/04/24 04:13:47;;;;;;;10.13;6.25;;;9.20;99.90;;;;;;6183521;23;20520;-76
2022/04/24 04:16:18;;;;;;;16.80;8.90;;;9.20;99.90;;;;;;6236435;23;20082;-77
2022/04/24 04:18:44;;;;;;;11.85;6.63;;;9.20;99.90;;;;;;6236921;23;20344;-76
2022/04/24 04:21:14;;;;;;;14.60;6.43;;;9.20;99.90;;;;;;6186040;23;20032;-77
2022/04/24 04:23:40;;;;;;;11.32;6.50;;;9.20;99.90;;;;;;6186315;23;20418;-76
2022/04/24 04:26:06;;;;;;;13.30;6.97;;;9.20;99.90;;;;;;6186499;23;20033;-76
2022/04/24 04:28:35;;;;;;;13.60;6.78;;;9.30;99.90;;;;;;6213408;23;20104;-77
2022/04/24 04:31:07;;;;;;;13.45;5.65;;;9.20;99.90;;;;;;6186218;23;20031;-77
2022/04/24 04:33:35;;;;;;;16.10;7.25;;;9.30;99.90;;;;;;6185898;23;20059;-77
2022/04/24 04:36:02;;;;;;;11.68;6.15;;;9.30;99.90;;;;;;6185540;23;20063;-76
2022/04/24 04:38:27;;;;;;;13.68;6.10;;;9.30;99.90;;;;;;6161285;23;20025;-77
2022/04/24 04:40:53;;;;;;;15.45;7.50;;;9.30;99.90;;;;;;6210982;23;20016;-75
2022/04/24 04:43:20;;;;;;;14.10;7.07;;;9.30;99.90;;;;;;6185321;23;20099;-77
2022/04/24 04:45:49;;;;;;;11.95;7.45;;;9.40;99.90;;;;;;6161094;23;20031;-77
2022/04/24 04:48:26;;;;;;;11.68;6.05;;;9.40;99.90;;;;;;6236824;23;20025;-75
2022/04/24 04:50:52;;;;;;;11.60;6.30;;;9.40;99.90;;;;;;6186614;23;20028;-75
2022/04/24 04:53:18;;;;;;;11.88;6.53;;;9.50;99.90;;;;;;6235831;23;20020;-75
2022/04/24 04:55:43;;;;;;;14.50;7.18;;;9.50;99.90;;;;;;6185875;23;20329;-76
2022/04/24 04:58:11;;;;;;;16.08;6.43;;;9.60;99.90;;;;;;6186060;23;20020;-76
2022/04/24 05:00:37;;;;;;;12.23;6.03;;;9.60;99.90;;;;;;6186481;23;20467;-76
2022/04/24 05:03:03;;;;;;;12.73;6.20;;;9.70;99.90;;;;;;6211216;23;20025;-75
2022/04/24 05:05:32;;;;;;;12.75;6.20;;;9.70;99.90;;;;;;6213314;23;20029;-76
2022/04/24 05:07:58;;;;;;;14.38;6.72;;;9.80;99.90;;;;;;6185651;23;20470;-75
2022/04/24 05:10:28;;;;;;;12.63;6.53;;;9.90;99.90;;;;;;6187211;23;20025;-76
2022/04/24 05:12:54;;;;;;;13.32;5.35;;;9.90;99.90;;;;;;6186161;23;20092;-76
2022/04/24 05:15:21;;;;;;;11.52;6.15;;;9.90;99.90;;;;;;6152798;23;20056;-77
2022/04/24 05:17:47;;;;;;;14.07;6.28;;;10.00;99.90;;;;;;6181891;23;20021;-76
2022/04/24 05:20:14;;;;;;;16.42;6.78;;;10.00;99.90;;;;;;6181683;23;20028;-77
2022/04/24 05:22:41;;;;;;;10.75;5.07;;;10.10;99.90;;;;;;6181601;23;20025;-76
2022/04/24 05:25:09;;;;;;;12.35;6.03;;;10.10;99.90;;;;;;6183580;23;20348;-75
2022/04/24 05:27:38;;;;;;;13.23;5.90;;;10.20;99.90;;;;;;6232554;22;20340;-75
2022/04/24 05:30:07;;;;;;;13.38;6.05;;;10.20;99.90;;;;;;6209612;23;20079;-76
2022/04/24 05:32:50;;;;;;;11.98;5.35;;;10.30;99.90;;;;;;6234341;23;20028;-76
2022/04/24 05:35:16;;;;;;;12.73;6.43;;;10.30;99.90;;;;;;6188595;23;20060;-77
2022/04/24 05:37:45;;;;;;;11.38;5.30;;;10.40;99.90;;;;;;6233897;23;20017;-77
2022/04/24 05:40:15;;;;;;;11.25;5.25;;;10.40;99.90;;;;;;6155671;23;20036;-76
2022/04/24 05:42:49;;;;;;;9.65;4.18;;;10.40;99.90;;;;;;6182361;23;20029;-76
2022/04/24 05:45:22;;;;;;;9.87;5.30;;;10.50;99.90;;;;;;6230880;23;20025;-76
2022/04/24 05:47:53;;;;;;;10.45;4.45;;;10.50;99.90;;;;;;6182717;23;20060;-75
2022/04/24 05:50:21;;;;;;;10.48;4.20;;;10.60;99.90;;;;;;6180179;23;20032;-77
2022/04/24 05:52:47;;;;;;;9.88;4.18;;;10.60;99.90;;;;;;6181479;23;20081;-77
2022/04/24 05:55:14;;;;;;;12.82;4.63;;;10.70;99.90;;;;;;6232692;23;20078;-75
2022/04/24 05:57:40;;;;;;;6.82;2.85;;;10.70;99.90;;;;;;6233328;23;20112;-76
2022/04/24 06:00:08;;;;;;;8.38;2.97;;;10.70;99.90;;;;;;6233006;23;20465;-75
2022/04/24 06:02:35;;;;;;;7.97;2.85;;;10.80;99.90;;;;;;6207581;23;20023;-76
2022/04/24 06:05:07;;;;;;;10.00;2.85;;;10.90;99.90;;;;;;6179354;23;20025;-76
2022/04/24 06:07:33;;;;;;;8.43;2.53;;;10.90;99.90;;;;;;6232498;23;20025;-76
2022/04/24 06:09:59;;;;;;;10.38;2.78;;;11.00;99.90;;;;;;6207754;23;20075;-76
2022/04/24 06:12:31;;;;;;;16.42;2.80;;;11.10;99.90;;;;;;6182555;23;20063;-78
2022/04/24 06:15:04;;;;;;;8.43;2.75;;;11.20;99.90;;;;;;6194616;23;20078;-77
2022/04/24 06:17:34;;;;;;;9.18;3.28;;;11.30;99.90;;;;;;6185783;23;20025;-77
2022/04/24 06:20:02;;;;;;;11.43;3.55;;;11.30;99.90;;;;;;6187835;23;20020;-77
2022/04/24 06:22:45;;;;;;;10.60;3.50;;;11.40;99.90;;;;;;6187157;23;20464;-76
2022/04/24 06:25:25;;;;;;;14.60;3.72;;;11.50;99.90;;;;;;6189279;23;20035;-77
2022/04/24 06:27:53;;;;;;;9.02;3.25;;;11.50;99.90;;;;;;6236339;23;20025;-77
2022/04/24 06:30:22;;;;;;;13.10;3.53;;;11.60;99.90;;;;;;6186251;23;20063;-76
2022/04/24 06:32:48;;;;;;;11.18;3.35;;;11.70;99.90;;;;;;6214477;23;20074;-77
2022/04/24 06:35:15;;;;;;;17.70;3.33;;;11.70;99.90;;;;;;6212374;23;20508;-77
2022/04/24 06:37:47;;;;;;;12.45;3.33;;;11.80;99.90;;;;;;6212839;23;20348;-76
2022/04/24 06:40:16;;;;;;;13.50;4.57;;;11.80;99.90;;;;;;6187146;23;20052;-77
2022/04/24 06:43:07;;;;;;;9.45;3.78;;;11.90;99.90;;;;;;6121813;23;20026;-76
2022/04/24 06:45:40;;;;;;;13.00;3.38;;;11.90;99.90;;;;;;6073021;23;20397;-76
2022/04/24 06:48:11;;;;;;;18.40;3.58;;;12.00;99.90;;;;;;6072553;23;20040;-76
2022/04/24 06:50:40;;;;;;;8.98;3.50;;;12.10;99.90;;;;;;6121658;23;20061;-77
2022/04/24 06:53:18;;;;;;;11.20;3.97;;;12.20;99.90;;;;;;6097618;23;20025;-76
2022/04/24 06:55:48;;;;;;;8.52;2.65;;;12.30;99.90;;;;;;6097474;23;20068;-76
2022/04/24 06:58:16;;;;;;;10.40;2.92;;;12.40;99.90;;;;;;6073141;23;20611;-77
2022/04/24 07:00:44;;;;;;;7.60;2.60;;;12.50;99.90;;;;;;6097017;23;20025;-77
2022/04/24 07:03:26;;;;;;;9.38;2.97;;;12.50;99.90;;;;;;6073700;23;20018;-76
2022/04/24 07:05:53;;;;;;;12.65;3.40;;;12.60;99.90;;;;;;6073477;23;20022;-77
2022/04/24 07:08:21;;;;;;;10.25;2.97;;;12.60;99.90;;;;;;6072365;23;20018;-75
2022/04/24 07:10:47;;;;;;;8.55;3.22;;;12.70;99.90;;;;;;6096667;23;20026;-76
2022/04/24 07:13:16;;;;;;;11.00;2.95;;;12.90;99.90;;;;;;6121594;23;20041;-75
2022/04/24 07:15:42;;;;;;;8.00;2.63;;;13.00;99.90;;;;;;6091926;23;20053;-76
2022/04/24 07:18:10;;;;;;;8.38;2.85;;;13.10;99.90;;;;;;6067831;23;20033;-78
2022/04/24 07:20:36;;;;;;;10.07;3.25;;;13.20;99.90;;;;;;6157726;23;20103;-76
2022/04/24 07:23:07;;;;;;;10.13;3.00;;;13.30;99.90;;;;;;6156724;23;20025;-75
2022/04/24 07:25:40;;;;;;;7.05;3.10;;;13.40;99.90;;;;;;6157130;23;20108;-76
2022/04/24 07:28:07;;;;;;;15.68;3.58;;;13.60;99.90;;;;;;6207142;23;20032;-76
2022/04/24 07:30:54;;;;;;;9.15;2.90;;;13.60;99.90;;;;;;6157040;23;20020;-77
2022/04/24 07:33:25;;;;;;;13.30;3.35;;;13.70;99.90;;;;;;6206345;23;20453;-76
2022/04/24 07:35:52;;;;;;;9.50;3.40;;;13.80;99.90;;;;;;6157026;23;20047;-76
2022/04/24 07:38:18;;;;;;;7.57;3.30;;;13.90;99.90;;;;;;6206790;23;20531;-77
2022/04/24 07:40:44;;;;;;;9.35;3.25;;;13.90;99.90;;;;;;6156110;23;20021;-77
2022/04/24 07:43:12;;;;;;;7.43;2.97;;;14.00;99.90;;;;;;6183561;23;20027;-76
2022/04/24 07:45:42;;;;;;;8.75;4.03;;;14.20;99.90;;;;;;6183124;23;20111;-78
2022/04/24 07:48:10;;;;;;;8.70;3.00;;;14.40;99.90;;;;;;6206451;23;20025;-78
2022/04/24 07:51:00;;;;;;;9.77;3.60;;;14.50;99.90;;;;;;6157768;23;20021;-77
2022/04/24 07:53:26;;;;;;;12.70;4.18;;;14.40;99.90;;;;;;6157123;23;20028;-78
2022/04/24 07:55:53;;;;;;;9.13;3.40;;;14.50;99.90;;;;;;6207145;23;20028;-78
2022/04/24 07:58:19;;;;;;;14.18;3.22;;;14.60;99.90;;;;;;6133250;23;20021;-77
2022/04/24 08:00:47;;;;;;;7.18;3.10;;;14.70;99.90;;;;;;6157362;23;20028;-76
2022/04/24 08:03:14;;;;;;;11.57;3.83;;;14.80;99.90;;;;;;6182204;23;20480;-76
2022/04/24 08:05:44;;;;;;;6.93;3.15;;;14.80;99.90;;;;;;6156489;23;20029;-76
2022/04/24 08:08:15;;;;;;;11.77;4.13;;;14.80;99.90;;;;;;6132148;23;20121;-78
2022/04/24 08:11:01;;;;;;;10.63;3.90;;;15.00;99.90;;;;;;6156840;23;20111;-77
2022/04/24 08:13:31;;;;;;;9.93;3.42;;;15.10;99.90;;;;;;6157165;23;20021;-77
2022/04/24 08:15:59;;;;;;;10.65;3.67;;;15.10;99.90;;;;;;6161788;23;20085;-77
2022/04/24 08:18:26;;;;;;;8.50;3.30;;;15.30;99.70;;;;;;6186533;23;20029;-79
2022/04/24 08:20:55;;;;;;;13.73;4.47;;;15.40;99.10;;;;;;6186537;23;20114;-77
2022/04/24 08:23:21;;;;;;;11.48;3.58;;;15.30;98.90;;;;;;6186722;23;20025;-78
2022/04/24 08:25:47;;;;;;;14.45;3.33;;;15.30;98.40;;;;;;6212048;23;20448;-77
2022/04/24 08:28:21;;;;;;;9.02;3.60;;;15.40;98.30;;;;;;6188529;23;20400;-78
2022/04/24 08:30:50;;;;;;;13.02;3.58;;;15.40;98.00;;;;;;6210657;23;20100;-78
2022/04/24 08:33:17;;;;;;;11.57;3.40;;;15.50;97.50;;;;;;6237218;23;20060;-78
2022/04/24 08:35:45;;;;;;;8.65;2.83;;;15.50;97.20;;;;;;6186730;23;20468;-78
2022/04/24 08:38:11;;;;;;;9.45;3.05;;;15.50;96.60;;;;;;6213527;23;20021;-76
2022/04/24 08:40:38;;;;;;;7.05;3.63;;;15.70;96.60;;;;;;6186177;23;20024;-78
2022/04/24 08:43:05;;;;;;;7.57;2.72;;;15.80;96.60;;;;;;6236152;23;20326;-76
2022/04/24 08:45:33;;;;;;;13.30;3.05;;;15.80;96.20;;;;;;6185602;23;20036;-77
2022/04/24 08:48:02;;;;;;;8.98;2.67;;;15.90;96.20;;;;;;6185601;23;20020;-77
2022/04/24 08:50:32;;;;;;;10.85;2.78;;;16.00;95.90;;;;;;6212782;23;20044;-76
2022/04/24 08:52:58;;;;;;;11.93;3.17;;;16.00;95.50;;;;;;6236733;23;20099;-76
2022/04/24 08:55:26;;;;;;;7.07;2.42;;;16.10;95.60;;;;;;6213272;23;20017;-76
2022/04/24 08:57:54;;;;;;;8.55;2.97;;;16.30;95.20;;;;;;6235440;23;20395;-76
2022/04/24 09:00:20;;;;;;;8.25;2.55;;;16.30;94.10;;;;;;6185800;23;20020;-77
2022/04/24 09:02:50;;;;;;;5.47;2.50;;;16.30;93.50;;;;;;6235895;23;20020;-77
2022/04/24 09:05:20;;;;;;;12.48;2.40;;;16.30;94.00;;;;;;6236463;23;20075;-79
2022/04/24 09:07:52;;;;;;;10.73;3.33;;;16.40;93.60;;;;;;6211430;23;20344;-77
2022/04/24 09:10:29;;;;;;;9.27;2.33;;;16.60;93.90;;;;;;6234982;23;20060;-78
2022/04/24 09:12:56;;;;;;;9.60;2.35;;;16.70;93.90;;;;;;6185617;23;20024;-77
2022/04/24 09:15:28;;;;;;;5.90;2.30;;;16.80;93.70;;;;;;6209833;23;20024;-76
2022/04/24 09:18:01;;;;;;;9.10;2.15;;;16.80;93.50;;;;;;6161587;23;20097;-77
2022/04/24 09:20:28;;;;;;;6.60;2.63;;;16.90;93.40;;;;;;6160831;23;20107;-77
2022/04/24 09:23:03;;;;;;;10.07;2.90;;;17.00;93.10;;;;;;6161389;23;20017;-76
2022/04/24 09:25:44;;;;;;;8.63;2.40;;;17.10;92.80;;;;;;6041631;23;20383;-76
2022/04/24 09:28:10;;;;;;;8.15;2.83;;;17.20;92.30;;;;;;6039190;23;20042;-78
2022/04/24 09:30:36;;;;;;;8.32;2.63;;;17.30;91.50;;;;;;6088380;23;20478;-77
2022/04/24 09:33:07;;;;;;;11.07;2.55;;;17.20;90.90;;;;;;6040080;23;20538;-76
2022/04/24 09:35:36;;;;;;;8.43;3.00;;;17.30;90.90;;;;;;6064447;23;20685;-76
2022/04/24 09:38:10;;;;;;;7.72;2.58;;;17.40;91.80;;;;;;6040928;23;20026;-76
2022/04/24 09:40:40;;;;;;;15.20;2.90;;;17.60;91.90;;;;;;6064375;23;20027;-77
2022/04/24 09:43:16;;;;;;;10.05;3.50;;;17.80;92.70;;;;;;6015912;23;20174;-78
2022/04/24 09:45:47;;;;;;;15.60;3.70;;;17.90;93.30;;;;;;6064306;23;20023;-76
2022/04/24 09:48:14;;;;;;;18.10;3.80;;;17.80;93.50;;;;;;6039985;23;20027;-77
2022/04/24 09:50:48;;;;;;;15.73;4.32;;;17.80;93.50;;;;;;6064254;23;20400;-77
2022/04/24 09:53:21;;;;;;;12.63;2.78;;;17.80;93.80;;;;;;6087790;23;20094;-77
2022/04/24 09:55:51;;;;;;;15.52;3.75;;;17.90;93.90;;;;;;6017361;23;20033;-77
2022/04/24 09:58:28;;;;;;;10.45;3.10;;;18.00;94.20;;;;;;6016949;23;20019;-78
2022/04/24 10:00:54;;;;;;;10.88;3.40;;;18.00;93.60;;;;;;6064085;23;20027;-78
2022/04/24 10:03:20;;;;;;;10.52;3.40;;;17.90;93.20;;;;;;6187897;23;20021;-78
2022/04/24 10:05:49;;;;;;;10.65;3.03;;;17.80;93.10;;;;;;6187332;23;20036;-76
2022/04/24 10:08:23;;;;;;;9.93;3.47;;;17.80;93.10;;;;;;6210274;23;20048;-76
2022/04/24 10:10:50;;;;;;;8.68;3.03;;;18.00;92.90;;;;;;6237724;23;20095;-77
2022/04/24 10:13:20;;;;;;;11.05;3.80;;;17.90;92.60;;;;;;6187606;23;20059;-76
2022/04/24 10:15:49;;;;;;;14.15;3.67;;;18.00;92.30;;;;;;6235505;22;20524;-78
2022/04/24 10:18:57;;;;;;;9.95;2.95;;;18.10;91.50;;;;;;6186794;23;20027;-78
2022/04/24 10:21:52;;;;;;;9.50;3.10;;;18.10;91.30;;;;;;6162407;23;20043;-77
2022/04/24 10:24:36;;;;;;;12.45;3.47;;;18.40;91.50;;;;;;6187056;23;20141;-76
2022/04/24 10:27:03;;;;;;;11.00;3.35;;;18.50;91.40;;;;;;6235457;23;20028;-78
2022/04/24 10:29:33;;;;;;;9.60;2.85;;;18.60;91.10;;;;;;6213505;23;20028;-78
2022/04/24 10:32:08;;;;;;;13.23;3.33;;;18.60;91.10;;;;;;6162730;23;20021;-79
2022/04/24 10:34:39;;;;;;;13.82;5.15;;;18.50;90.50;;;;;;6211821;23;20130;-77
2022/04/24 10:37:24;;;;;;;11.48;3.25;;;18.60;90.60;;;;;;6238495;23;20028;-77
2022/04/24 10:39:56;;;;;;;12.00;3.17;;;18.70;90.40;;;;;;6210980;23;20029;-79
2022/04/24 10:42:35;;;;;;;14.88;4.82;;;18.70;90.20;;;;;;6188162;23;20021;-78
2022/04/24 10:45:14;;;;;;;12.05;4.05;;;18.60;89.30;;;;;;6189717;23;20031;-77
2022/04/24 10:47:53;;;;;;;8.82;3.70;;;18.70;90.50;;;;;;6188197;23;20032;-77
2022/04/24 10:50:22;;;;;;;11.68;3.50;;;18.70;90.50;;;;;;6218161;23;20025;-78
2022/04/24 10:52:54;;;;;;;8.98;3.85;;;18.70;90.10;;;;;;6222034;23;20055;-76
2022/04/24 10:55:26;;;;;;;11.75;4.07;;;18.70;89.70;;;;;;6220797;23;20099;-79
2022/04/24 10:58:02;;;;;;;19.13;4.85;;;18.60;88.70;;;;;;6214119;23;20024;-77
2022/04/24 11:00:37;;;;;;;16.00;4.32;;;18.60;88.00;;;;;;6186859;23;20024;-77
2022/04/24 11:03:14;;;;;;;8.98;3.92;;;18.50;88.80;;;;;;6187102;23;20514;-77
2022/04/24 11:05:43;;;;;;;15.18;4.28;;;18.60;89.10;;;;;;6237316;23;20460;-78
2022/04/24 11:08:17;;;;;;;13.68;4.82;;;18.40;89.20;;;;;;6235757;23;20021;-78
2022/04/24 11:10:46;;;;;;;12.77;4.10;;;18.50;90.20;;;;;;6186171;23;20086;-79
2022/04/24 11:13:13;;;;;;;11.02;4.20;;;18.70;89.20;;;;;;6237606;23;20415;-80
2022/04/24 11:15:45;;;;;;;12.40;4.53;;;18.80;89.20;;;;;;6182017;23;20032;-78
2022/04/24 11:18:23;;;;;;;11.82;4.18;;;18.70;89.00;;;;;;6184171;23;20100;-79
2022/04/24 11:20:58;;;;;;;10.23;4.32;;;18.70;88.00;;;;;;6231651;23;20066;-78
2022/04/24 11:23:35;;;;;;;16.35;4.60;;;18.90;89.50;;;;;;6207200;23;20029;-78
2022/04/24 11:26:09;;;;;;;11.27;4.90;;;19.00;89.00;;;;;;6182525;23;20032;-78
2022/04/24 11:28:39;;;;;;;11.38;4.55;;;19.10;87.10;;;;;;6231824;23;20483;-78
2022/04/24 11:31:19;;;;;;;11.85;4.22;;;19.00;86.90;;;;;;6182578;23;20103;-77
2022/04/24 11:34:01;;;;;;;14.25;4.60;;;18.90;86.70;;;;;;6184694;23;20068;-78
2022/04/24 11:36:34;;;;;;;9.27;4.07;;;19.00;84.40;;;;;;6207360;23;20090;-76
2022/04/24 11:39:32;;;;;;;13.90;4.53;;;19.30;86.20;;;;;;6207596;23;20025;-78
2022/04/24 11:42:08;;;;;;;8.20;4.78;;;19.40;83.30;;;;;;6181987;23;20079;-77
2022/04/24 11:50:15;;;;;;;14.77;5.22;;;19.40;82.30;;;;;;6180862;23;20025;-77
2022/04/24 11:52:49;;;;;;;11.32;4.22;;;19.60;82.70;;;;;;6206105;23;20091;-79
2022/04/24 11:55:16;;;;;;;10.35;4.72;;;19.70;81.10;;;;;;6232555;23;20040;-76
2022/04/24 11:58:02;;;;;;;10.13;4.57;;;19.80;80.90;;;;;;6224712;23;20467;-76
2022/04/24 12:00:39;;;;;;;13.15;4.40;;;19.80;81.70;;;;;;6156587;23;20017;-76
2022/04/24 12:03:10;;;;;;;16.20;4.20;;;20.10;80.30;;;;;;6184738;23;20100;-77
2022/04/24 12:05:37;;;;;;;9.45;4.15;;;19.80;79.00;;;;;;6227440;23;20106;-77
2022/04/24 12:08:04;;;;;;;8.38;4.38;;;20.10;76.70;;;;;;6183259;23;20025;-76
2022/04/24 12:10:31;;;;;;;11.15;4.40;;;20.10;76.20;;;;;;6181238;23;20032;-77
2022/04/24 12:13:04;;;;;;;12.23;3.92;;;20.40;76.50;;;;;;6181768;23;20025;-77
2022/04/24 12:15:30;;;;;;;11.35;4.07;;;20.80;75.00;;;;;;6180805;23;20104;-78
2022/04/24 12:18:00;;;;;;;8.13;3.65;;;20.50;72.20;;;;;;6180975;23;20057;-78
2022/04/24 12:20:38;;;;;;;11.88;4.50;;;20.30;71.10;;;;;;6230222;23;20028;-78
2022/04/24 12:23:12;;;;;;;10.88;4.13;;;20.40;72.30;;;;;;6181244;23;20017;-78
2022/04/24 12:25:58;;;;;;;11.75;4.53;;;20.60;70.00;;;;;;6181532;23;20029;-79
2022/04/24 12:28:32;;;;;;;8.98;4.25;;;20.80;66.40;;;;;;6205807;23;20080;-78
2022/04/24 12:31:03;;;;;;;9.80;3.90;;;20.40;67.80;;;;;;6156299;23;20451;-77
2022/04/24 12:33:49;;;;;;;10.57;3.55;;;20.60;66.10;;;;;;6181333;23;20047;-78
2022/04/24 12:36:16;;;;;;;9.20;3.88;;;20.60;67.30;;;;;;6181219;23;20366;-79
2022/04/24 12:38:59;;;;;;;8.93;3.40;;;20.60;67.30;;;;;;6181388;23;20025;-78
2022/04/24 12:41:29;;;;;;;10.43;4.00;;;20.70;65.50;;;;;;6205490;23;20044;-78
2022/04/24 12:44:01;;;;;;;13.00;4.22;;;20.80;65.30;;;;;;6205908;23;20036;-76
2022/04/24 12:46:31;;;;;;;9.57;3.40;;;21.10;65.90;;;;;;6157482;23;20023;-77
2022/04/24 12:48:57;;;;;;;7.82;3.33;;;21.40;64.20;;;;;;6181126;23;20040;-78
2022/04/24 12:51:25;;;;;;;11.45;4.68;;;21.80;62.70;;;;;;6181604;23;20453;-77
2022/04/24 12:53:52;;;;;;;11.50;3.72;;;21.70;60.00;;;;;;6183026;23;20054;-78
2022/04/24 12:56:18;;;;;;;7.88;3.40;;;21.40;58.70;;;;;;6183088;23;20467;-77
2022/04/24 12:58:47;;;;;;;11.40;3.63;;;21.20;59.20;;;;;;6181745;23;20096;-78
2022/04/24 13:01:14;;;;;;;17.27;4.05;;;21.30;59.80;;;;;;6232732;23;20013;-77
2022/04/24 13:03:41;;;;;;;11.65;3.40;;;21.30;59.50;;;;;;6232981;23;20021;-77
2022/04/24 13:06:08;;;;;;;7.57;3.50;;;21.60;59.30;;;;;;6158375;23;20021;-78